Cherokee Falls, South Carolina
Current Conditions -  °F | °C
As of 6:55 AM on Sunday 21 Dec 2014 (Local Time) from KEHO Reporting Station
Overcast Overcast  
Wind Chill:   Ceiling: 1900
Heat Index:   Visibility: 7mi
Dew Point:   Wind: 3mph
Humidity: 86%   Direction: 20°NNE
Pressure: 30.25"   Gusts: NA
Location:  35.1147°N, 81.4908°W
Report Text: KEHO 211155Z AUTO 02003KT 7SM OVC019 05/03 A3025 RMK AO2 70002 T00480027 10053 20047
Loading
Personal Weather Stations






























Interactive Weather Map New forecast layout! Learn more

10-Day Weather Forecast

Advertisements
Track Severe Weather on mobile